Decoded Metar for LFPG (PARIS CHARLES DE GAULLE in FRANCE) (IATA:CDG) | Meteo·Mobile Aviation Weather
aviador You're here:

LFPG Decoded Metar

PARIS CHARLES DE GAULLE in FRANCE
Report Time2019-08-23 08:30:00
UTC Time2019-08-23 08:48:20
Flight Rules vfr VFR
Wind030° at 06 kt
W.Decomp.*RWY 08: 3.9 kt HW 4.5 kt LCW
RWY 09: 3.1 kt HW 5.1 kt LCW
Visibility9999 m
Phenomena:N/A
Clouds:N/A
Expected CloudBase > 3,600 ft AGL from Temp-Dew spread
CeilingNone
Temp21°C (ISA +7)
Dew Point12°C (57% RH)
AAT19.5°C
QNH1025 hPa
Density Alt928 ft
Elevation358 ft
Report Wrong Elevation
Raw Report
LFPG 230830Z 03006KT 010V070 CAVOK 21/12 Q1025 NOSIG=

Extra information for LFPG:More info

Metar Taf Metar & Taf Last 4 Metars F.Rules Stats Wind Profile Meteogram Temp Stats Airport Information Weather charts Add Link Nearby VenuesMetar ALERT Operation Metar Decoded Social comments